createdAt,value
2022-10-22T00:00:14.921Z,71.2857
2022-10-22T00:01:14.953Z,71.3571
2022-10-22T00:02:14.987Z,71.4286
2022-10-22T00:03:15.020Z,71.5
2022-10-22T00:04:15.047Z,71.5
2022-10-22T00:05:15.075Z,71.5714
2022-10-22T00:06:15.107Z,71.5714
2022-10-22T00:07:15.144Z,71.4286
2022-10-22T00:08:15.172Z,71.3571
2022-10-22T00:09:15.271Z,71.2857
2022-10-22T00:10:15.234Z,71.2143
2022-10-22T00:11:15.269Z,71.1429
2022-10-22T00:12:15.296Z,71
2022-10-22T00:13:15.336Z,71
2022-10-22T00:14:15.368Z,70.9286
2022-10-22T00:15:15.405Z,70.9286
2022-10-22T00:16:15.443Z,70.9286
2022-10-22T00:17:15.472Z,70.9286
2022-10-22T00:18:15.512Z,71.0714
2022-10-22T00:19:15.547Z,71.3571
2022-10-22T00:20:15.579Z,71.5
2022-10-22T00:21:15.620Z,71.7857
2022-10-22T00:22:15.664Z,71.8571
2022-10-22T00:23:15.693Z,71.9286
2022-10-22T00:24:15.731Z,72
2022-10-22T00:25:15.773Z,72.1429
2022-10-22T00:26:15.819Z,72.2143
2022-10-22T00:27:15.849Z,72.1429
2022-10-22T00:28:15.940Z,72.1429
2022-10-22T00:29:15.912Z,72.1429
2022-10-22T00:30:15.950Z,72.1429
2022-10-22T00:31:15.991Z,72.2143
2022-10-22T00:32:16.038Z,72.1429
2022-10-22T00:33:16.076Z,72.2143
2022-10-22T00:34:16.103Z,72.3571
2022-10-22T00:35:16.142Z,72.3571
2022-10-22T00:36:16.178Z,72.3571
2022-10-22T00:37:16.217Z,72.2143
2022-10-22T00:38:16.241Z,72.2857
2022-10-22T00:39:16.290Z,72.2857
2022-10-22T00:40:16.318Z,72.2857
2022-10-22T00:41:16.352Z,72.2857
2022-10-22T00:42:16.385Z,72.2857
2022-10-22T00:43:16.424Z,72.2143
2022-10-22T00:44:16.457Z,72.0714
2022-10-22T00:45:16.482Z,72.1429
2022-10-22T00:46:16.516Z,72.1429
2022-10-22T00:47:16.556Z,72.1429
2022-10-22T00:48:16.595Z,72.0714
2022-10-22T00:49:16.621Z,72
2022-10-22T00:50:16.647Z,72
2022-10-22T00:51:16.690Z,72
2022-10-22T00:52:16.732Z,72.1429
2022-10-22T00:53:16.769Z,72.2857
2022-10-22T00:54:16.809Z,72.4286
2022-10-22T00:55:16.850Z,72.5
2022-10-22T00:56:16.881Z,72.5714
2022-10-22T00:57:16.920Z,72.5714
2022-10-22T00:58:16.952Z,72.7143
2022-10-22T00:59:16.989Z,72.7143
2022-10-22T01:00:17.024Z,72.7143
2022-10-22T01:01:17.120Z,72.6429
2022-10-22T01:02:17.101Z,72.5714
2022-10-22T01:03:17.140Z,72.6429
2022-10-22T01:04:17.176Z,72.7857
2022-10-22T01:05:17.221Z,72.9286
2022-10-22T01:06:17.256Z,73.0714
2022-10-22T01:07:17.300Z,73.3571
2022-10-22T01:08:17.339Z,73.5714
2022-10-22T01:09:17.364Z,73.6429
2022-10-22T01:10:17.394Z,73.7857
2022-10-22T01:11:17.420Z,74
2022-10-22T01:12:17.448Z,74.1429
2022-10-22T01:13:17.477Z,74.2857
2022-10-22T01:14:17.513Z,74.3571
2022-10-22T01:15:17.542Z,74.5
2022-10-22T01:16:17.574Z,74.5714
2022-10-22T01:17:17.625Z,74.6429
2022-10-22T01:18:17.656Z,74.7857
2022-10-22T01:19:17.678Z,74.8571
2022-10-22T01:20:17.717Z,74.9286
2022-10-22T01:21:17.750Z,74.8571
2022-10-22T01:22:17.804Z,74.7857
2022-10-22T01:23:17.826Z,74.6429
2022-10-22T01:24:17.858Z,74.5
2022-10-22T01:25:17.924Z,74.5714
2022-10-22T01:26:18.011Z,74.5
2022-10-22T01:27:17.980Z,74.4286
2022-10-22T01:28:18.013Z,74.4286
2022-10-22T01:29:18.057Z,74.2857
2022-10-22T01:30:18.106Z,74.2143
2022-10-22T01:31:18.140Z,74.0714
2022-10-22T01:32:18.169Z,73.9286
2022-10-22T01:33:18.216Z,73.9286
2022-10-22T01:34:18.265Z,73.8571
2022-10-22T01:35:18.286Z,73.8571
2022-10-22T01:36:18.318Z,74
2022-10-22T01:37:18.356Z,74.0714
2022-10-22T01:38:18.401Z,74.1429
2022-10-22T01:39:18.434Z,74.2143
2022-10-22T01:40:18.461Z,74.0714
2022-10-22T01:41:18.501Z,73.9286
2022-10-22T01:42:18.543Z,73.8571
2022-10-22T01:43:18.581Z,73.9286
2022-10-22T01:44:18.607Z,73.9286
2022-10-22T01:45:18.644Z,73.9286
2022-10-22T01:46:18.685Z,73.9286
2022-10-22T01:47:18.729Z,73.9286
2022-10-22T01:48:18.754Z,74
2022-10-22T01:49:18.785Z,74.0714
2022-10-22T01:50:18.823Z,74.1429
2022-10-22T01:51:18.875Z,74.2857
2022-10-22T01:52:18.902Z,74.4286
2022-10-22T01:53:18.932Z,74.5
2022-10-22T01:54:18.972Z,74.5
2022-10-22T01:55:19.021Z,74.5
2022-10-22T01:56:19.048Z,74.5
2022-10-22T01:57:19.074Z,74.5
2022-10-22T01:58:19.116Z,74.5
2022-10-22T01:59:19.160Z,74.3571
2022-10-22T02:00:19.193Z,74.2143
2022-10-22T02:01:19.224Z,74.1429
2022-10-22T02:02:19.263Z,74.0714
2022-10-22T02:03:22.827Z,74
2022-10-22T02:04:19.351Z,73.9286
2022-10-22T02:05:19.378Z,73.9286
2022-10-22T02:06:19.416Z,74.0714
2022-10-22T02:07:19.472Z,74.1429
2022-10-22T02:08:19.510Z,74.2857
2022-10-22T02:09:19.616Z,74.2857
2022-10-22T02:10:19.562Z,74.2857
2022-10-22T02:11:19.605Z,74.3571
2022-10-22T02:12:19.648Z,74.2857
2022-10-22T02:13:19.674Z,74.1429
2022-10-22T02:14:19.714Z,74
2022-10-22T02:15:19.759Z,73.7857
2022-10-22T02:16:19.806Z,73.7143
2022-10-22T02:17:19.840Z,73.6429
2022-10-22T02:18:19.869Z,73.5
2022-10-22T02:19:19.918Z,73.4286
2022-10-22T02:20:19.960Z,73.3571
2022-10-22T02:21:19.983Z,73.5
2022-10-22T02:22:20.018Z,73.6429
2022-10-22T02:23:20.055Z,73.7143
2022-10-22T02:24:20.104Z,73.7857
2022-10-22T02:25:20.131Z,73.7857
2022-10-22T02:26:20.160Z,73.8571
2022-10-22T02:27:24.297Z,73.7857
2022-10-22T02:28:20.243Z,73.7857
2022-10-22T02:29:20.283Z,73.7857
2022-10-22T02:30:20.327Z,73.7143
2022-10-22T02:31:20.345Z,73.5714
2022-10-22T02:32:20.384Z,73.4286
2022-10-22T02:33:20.411Z,73.4286
2022-10-22T02:34:20.442Z,73.5
2022-10-22T02:35:20.475Z,73.5
2022-10-22T02:36:20.511Z,73.5
2022-10-22T02:37:20.547Z,73.5714
2022-10-22T02:38:20.579Z,73.5714
2022-10-22T02:39:20.617Z,73.6429
2022-10-22T02:40:20.645Z,73.6429
2022-10-22T02:41:20.674Z,73.5714
2022-10-22T02:42:20.702Z,73.5
2022-10-22T02:43:20.729Z,73.3571
2022-10-22T02:44:20.769Z,73.2857
2022-10-22T02:45:20.803Z,73.2143
2022-10-22T02:46:20.833Z,73.2143
2022-10-22T02:47:20.864Z,73.2143
2022-10-22T02:49:20.942Z,73.2857
2022-10-22T02:50:20.966Z,73.4286
2022-10-22T02:51:20.994Z,73.6429
2022-10-22T02:52:21.029Z,73.7857
2022-10-22T02:53:21.066Z,73.7857
2022-10-22T02:54:21.097Z,73.8571
2022-10-22T02:55:21.130Z,73.7857
2022-10-22T02:56:21.161Z,73.7857
2022-10-22T02:58:21.228Z,73.6429
2022-10-22T02:59:21.262Z,73.5
2022-10-22T03:00:21.297Z,73.3571
2022-10-22T03:01:21.376Z,73.3571
2022-10-22T03:02:21.359Z,73.2857
2022-10-22T03:03:21.388Z,73.2857
2022-10-22T03:04:21.425Z,73.3571
2022-10-22T03:05:21.454Z,73.5
2022-10-22T03:06:21.557Z,73.6429
2022-10-22T03:07:21.536Z,73.6429
2022-10-22T03:08:21.558Z,73.6429
2022-10-22T03:09:24.165Z,73.7143
2022-10-22T03:10:21.634Z,73.7143
2022-10-22T03:11:21.672Z,73.7857
2022-10-22T03:12:21.702Z,73.7857
2022-10-22T03:13:21.738Z,73.8571
2022-10-22T03:14:21.772Z,73.9286
2022-10-22T03:15:21.853Z,73.9286
2022-10-22T03:16:21.842Z,73.9286
2022-10-22T03:17:21.876Z,73.9286
2022-10-22T03:18:21.910Z,73.9286
2022-10-22T03:19:21.942Z,73.9286
2022-10-22T03:20:21.980Z,73.9286
2022-10-22T03:21:22.011Z,73.8571
2022-10-22T03:22:22.043Z,73.7857
2022-10-22T03:23:22.082Z,73.6429
2022-10-22T03:24:22.101Z,73.5
2022-10-22T03:25:22.141Z,73.3571
2022-10-22T03:26:22.187Z,73.2857
2022-10-22T03:27:22.214Z,73.2143
2022-10-22T03:28:22.274Z,73.2857
2022-10-22T03:29:22.286Z,73.3571
2022-10-22T03:30:22.336Z,73.4286
2022-10-22T03:31:22.354Z,73.4286
2022-10-22T03:32:22.388Z,73.5
2022-10-22T03:33:22.421Z,73.5714
2022-10-22T03:34:22.456Z,73.5714
2022-10-22T03:35:22.495Z,73.6429
2022-10-22T03:36:22.531Z,73.5714
2022-10-22T03:37:22.572Z,73.3571
2022-10-22T03:38:22.598Z,73.2143
2022-10-22T03:39:22.627Z,73.2143
2022-10-22T03:40:22.650Z,73.2143
2022-10-22T03:41:22.689Z,73.2143
2022-10-22T03:42:22.720Z,73.2143
2022-10-22T03:43:22.747Z,73.2143
2022-10-22T03:44:22.777Z,73.1429
2022-10-22T03:45:22.819Z,73.1429
2022-10-22T03:46:22.867Z,73.0714
2022-10-22T03:47:22.879Z,73
2022-10-22T03:48:22.916Z,73
2022-10-22T03:49:22.945Z,73.0714
2022-10-22T03:50:22.975Z,73
2022-10-22T03:51:23.005Z,72.9286
2022-10-22T03:52:23.043Z,72.8571
2022-10-22T03:53:23.078Z,72.8571
2022-10-22T03:54:23.113Z,72.8571
2022-10-22T03:55:23.150Z,72.8571
2022-10-22T03:56:23.186Z,72.8571
2022-10-22T03:57:23.215Z,72.8571
2022-10-22T03:58:23.244Z,72.8571
2022-10-22T03:59:23.275Z,72.9286
2022-10-22T04:00:23.317Z,73
2022-10-22T04:01:23.392Z,73.1429
2022-10-22T04:02:23.373Z,73.2143
2022-10-22T04:03:23.409Z,73.2857
2022-10-22T04:04:23.446Z,73.1429
2022-10-22T04:05:23.483Z,72.9286
2022-10-22T04:06:23.511Z,72.7857
2022-10-22T04:07:23.553Z,72.7143
2022-10-22T04:08:23.587Z,72.7143
2022-10-22T04:09:23.617Z,72.7143
2022-10-22T04:10:23.653Z,72.7143
2022-10-22T04:11:23.683Z,72.6429
2022-10-22T04:12:23.709Z,72.6429
2022-10-22T04:13:23.743Z,72.6429
2022-10-22T04:14:23.778Z,72.5714
2022-10-22T04:15:23.807Z,72.5
2022-10-22T04:16:26.212Z,72.5714
2022-10-22T04:17:23.866Z,72.7857
2022-10-22T04:18:23.903Z,72.8571
2022-10-22T04:19:23.933Z,72.9286
2022-10-22T04:20:23.978Z,73
2022-10-22T04:21:24.001Z,73.0714
2022-10-22T04:22:24.034Z,73.0714
2022-10-22T04:23:24.064Z,73.1429
2022-10-22T04:24:24.100Z,73.1429
2022-10-22T04:25:24.129Z,73.2143
2022-10-22T04:26:24.173Z,73.1429
2022-10-22T04:27:24.208Z,73.1429
2022-10-22T04:28:24.237Z,73.1429
2022-10-22T04:29:24.265Z,73.1429
2022-10-22T04:30:24.301Z,73.2143
2022-10-22T04:31:24.332Z,73.1429
2022-10-22T04:32:24.368Z,73.1429
2022-10-22T04:33:24.407Z,73
2022-10-22T04:34:24.443Z,73
2022-10-22T04:36:24.515Z,73.1429
2022-10-22T04:37:24.543Z,73.2143
2022-10-22T04:38:24.583Z,73.3571
2022-10-22T04:39:24.610Z,73.5714
2022-10-22T04:40:24.642Z,73.6429
2022-10-22T04:41:24.675Z,73.6429
2022-10-22T04:42:24.708Z,73.7143
2022-10-22T04:43:24.739Z,73.7857
2022-10-22T04:44:24.774Z,73.7857
2022-10-22T04:45:24.806Z,73.6429
2022-10-22T04:46:24.838Z,73.5
2022-10-22T04:47:24.876Z,73.5714
2022-10-22T04:48:24.915Z,73.5714
2022-10-22T04:49:24.950Z,73.6429
2022-10-22T04:50:24.981Z,73.6429
2022-10-22T04:51:25.018Z,73.6429
2022-10-22T04:52:25.040Z,73.7143
2022-10-22T04:53:25.074Z,73.7143
2022-10-22T04:54:27.809Z,73.6429
2022-10-22T04:55:25.213Z,73.7143
2022-10-22T04:56:25.211Z,73.6429
2022-10-22T04:57:25.203Z,73.5714
2022-10-22T04:58:25.233Z,73.5
2022-10-22T04:59:25.261Z,73.5
2022-10-22T05:00:25.290Z,73.5
2022-10-22T05:01:25.429Z,73.5714
2022-10-22T05:02:25.343Z,73.5714
2022-10-22T05:03:25.378Z,73.5714
2022-10-22T05:04:25.410Z,73.5
2022-10-22T05:05:25.450Z,73.5
2022-10-22T05:06:25.489Z,73.5714
2022-10-22T05:07:25.518Z,73.5714
2022-10-22T05:08:25.550Z,73.5714
2022-10-22T05:09:25.586Z,73.5
2022-10-22T05:10:25.622Z,73.2857
2022-10-22T05:11:25.644Z,73.2143
2022-10-22T05:12:25.672Z,73.1429
2022-10-22T05:13:25.710Z,73.2143
2022-10-22T05:14:25.749Z,73.2143
2022-10-22T05:15:25.786Z,73.1429
2022-10-22T05:16:25.814Z,73.0714
2022-10-22T05:17:25.841Z,73
2022-10-22T05:18:25.870Z,72.9286
2022-10-22T05:19:25.902Z,73
2022-10-22T05:20:25.933Z,72.8571
2022-10-22T05:21:25.985Z,72.7857
2022-10-22T05:22:25.993Z,72.7857
2022-10-22T05:23:26.024Z,72.7143
2022-10-22T05:24:26.053Z,72.8571
2022-10-22T05:25:26.086Z,72.9286
2022-10-22T05:26:26.123Z,72.7857
2022-10-22T05:27:26.152Z,72.8571
2022-10-22T05:28:26.177Z,73
2022-10-22T05:29:26.210Z,73
2022-10-22T05:30:26.254Z,73.1429
2022-10-22T05:31:26.290Z,73.2143
2022-10-22T05:32:26.317Z,73.2857
2022-10-22T05:33:26.355Z,73.2857
2022-10-22T05:34:26.380Z,73.2143
2022-10-22T05:35:26.407Z,73.1429
2022-10-22T05:36:26.447Z,73.0714
2022-10-22T05:37:26.476Z,72.9286
2022-10-22T05:38:26.500Z,72.8571
2022-10-22T05:39:26.536Z,72.7857
2022-10-22T05:40:30.878Z,72.7143
2022-10-22T05:41:26.588Z,72.8571
2022-10-22T05:42:26.620Z,72.8571
2022-10-22T05:43:26.646Z,72.9286
2022-10-22T05:44:26.682Z,72.8571
2022-10-22T05:45:26.713Z,72.7857
2022-10-22T05:46:26.748Z,72.8571
2022-10-22T05:47:26.776Z,72.8571
2022-10-22T05:48:26.862Z,72.7143
2022-10-22T05:49:26.837Z,72.7143
2022-10-22T05:50:26.870Z,72.6429
2022-10-22T05:51:26.899Z,72.7143
2022-10-22T05:52:26.926Z,72.7857
2022-10-22T05:53:26.957Z,72.8571
2022-10-22T05:54:26.983Z,72.9286
2022-10-22T05:55:27.018Z,72.9286
2022-10-22T05:56:27.073Z,72.9286
2022-10-22T05:57:27.085Z,73
2022-10-22T05:58:27.121Z,73
2022-10-22T05:59:27.211Z,73.1429
2022-10-22T06:00:27.191Z,73.2143
2022-10-22T06:01:27.227Z,73.5
2022-10-22T06:02:27.315Z,73.7143
2022-10-22T06:03:27.283Z,73.9286
2022-10-22T06:04:27.312Z,74.0714
2022-10-22T06:05:27.345Z,74.1429
2022-10-22T06:06:27.375Z,74.2143
2022-10-22T06:07:27.406Z,74.0714
2022-10-22T06:08:27.438Z,73.8571
2022-10-22T06:09:27.566Z,73.7143
2022-10-22T06:10:27.493Z,73.6429
2022-10-22T06:11:29.936Z,73.6429
2022-10-22T06:12:27.549Z,73.7143
2022-10-22T06:13:27.586Z,73.6429
2022-10-22T06:14:27.618Z,73.6429
2022-10-22T06:15:27.655Z,73.6429
2022-10-22T06:16:27.693Z,73.5714
2022-10-22T06:17:27.728Z,73.4286
2022-10-22T06:18:27.765Z,73.4286
2022-10-22T06:19:27.798Z,73.4286
2022-10-22T06:20:27.860Z,73.2857
2022-10-22T06:21:27.860Z,73.2143
2022-10-22T06:22:27.903Z,73.2143
2022-10-22T06:23:27.935Z,73.2857
2022-10-22T06:24:27.964Z,73.2857
2022-10-22T06:25:28.002Z,73.3571
2022-10-22T06:26:28.038Z,73.4286
2022-10-22T06:27:28.071Z,73.5
2022-10-22T06:28:28.103Z,73.5
2022-10-22T06:29:28.138Z,73.5714
2022-10-22T06:30:28.169Z,73.6429
2022-10-22T06:31:28.204Z,73.6429
2022-10-22T06:32:28.232Z,73.7143
2022-10-22T06:33:28.259Z,73.7857
2022-10-22T06:34:28.293Z,73.8571
2022-10-22T06:35:28.323Z,73.9286
2022-10-22T06:36:28.414Z,74
2022-10-22T06:37:28.389Z,74
2022-10-22T06:38:28.419Z,74.0714
2022-10-22T06:39:28.444Z,74.1429
2022-10-22T06:40:28.479Z,74.1429
2022-10-22T06:41:28.900Z,74.1429
2022-10-22T06:42:28.537Z,74.1429
2022-10-22T06:43:28.565Z,74
2022-10-22T06:44:28.588Z,73.9286
2022-10-22T06:45:28.619Z,73.8571
2022-10-22T06:46:28.644Z,73.7857
2022-10-22T06:47:28.670Z,73.7857
2022-10-22T06:48:28.700Z,73.7857
2022-10-22T06:49:28.732Z,73.7857
2022-10-22T06:50:28.759Z,73.7857
2022-10-22T06:51:28.788Z,73.7857
2022-10-22T06:52:28.820Z,73.7857
2022-10-22T06:53:28.850Z,73.8571
2022-10-22T06:54:28.879Z,73.8571
2022-10-22T06:55:28.920Z,73.9286
2022-10-22T06:56:28.943Z,73.9286
2022-10-22T06:57:28.973Z,73.9286
2022-10-22T06:58:29.013Z,73.9286
2022-10-22T06:59:29.040Z,73.9286
2022-10-22T07:00:29.126Z,74
2022-10-22T07:01:29.187Z,74.0714
2022-10-22T07:02:29.144Z,74.0714
2022-10-22T07:03:29.177Z,74.0714
2022-10-22T07:04:29.205Z,74
2022-10-22T07:05:29.240Z,74
2022-10-22T07:06:29.272Z,74.0714
2022-10-22T07:07:29.315Z,74.0714
2022-10-22T07:08:29.343Z,74.0714
2022-10-22T07:09:29.368Z,74.0714
2022-10-22T07:10:30.681Z,74.1429
2022-10-22T07:11:29.429Z,74.1429
2022-10-22T07:12:29.464Z,74.1429
2022-10-22T07:13:29.498Z,74.0714
2022-10-22T07:14:29.525Z,74.0714
2022-10-22T07:15:29.562Z,74
2022-10-22T07:16:32.156Z,74
2022-10-22T07:17:29.688Z,73.9286
2022-10-22T07:18:29.664Z,73.9286
2022-10-22T07:19:29.692Z,74.0714
2022-10-22T07:20:29.716Z,74.0714
2022-10-22T07:21:29.761Z,74.1429
2022-10-22T07:22:29.772Z,74.1429
2022-10-22T07:23:29.810Z,74.1429
2022-10-22T07:24:29.843Z,74.2143
2022-10-22T07:25:29.871Z,74.2143
2022-10-22T07:26:29.900Z,74.2143
2022-10-22T07:27:29.926Z,74.2143
2022-10-22T07:28:29.954Z,74.2857
2022-10-22T07:29:29.988Z,74.3571
2022-10-22T07:30:30.024Z,74.2143
2022-10-22T07:31:30.067Z,74.1429
2022-10-22T07:32:30.086Z,74.1429
2022-10-22T07:33:30.131Z,74.1429
2022-10-22T07:34:30.171Z,74.1429
2022-10-22T07:35:30.203Z,74.0714
2022-10-22T07:36:30.235Z,73.9286
2022-10-22T07:37:30.267Z,73.8571
2022-10-22T07:38:30.297Z,73.8571
2022-10-22T07:39:30.328Z,73.8571
2022-10-22T07:40:30.371Z,73.7857
2022-10-22T07:41:30.401Z,73.7143
2022-10-22T07:43:30.470Z,73.5714
2022-10-22T07:44:30.505Z,73.5714
2022-10-22T07:45:30.536Z,73.5
2022-10-22T07:46:30.570Z,73.4286
2022-10-22T07:47:30.598Z,73.5
2022-10-22T07:48:30.634Z,73.5
2022-10-22T07:49:30.670Z,73.5714
2022-10-22T07:50:30.745Z,73.5
2022-10-22T07:51:30.732Z,73.5
2022-10-22T07:52:30.757Z,73.5
2022-10-22T07:53:30.781Z,73.5714
2022-10-22T07:54:30.813Z,73.5
2022-10-22T07:55:30.845Z,73.5
2022-10-22T07:56:30.875Z,73.5
2022-10-22T07:57:30.911Z,73.5
2022-10-22T07:58:30.942Z,73.5
2022-10-22T07:59:30.976Z,73.5
2022-10-22T08:00:31.005Z,73.5714
2022-10-22T08:01:31.130Z,73.5714
2022-10-22T08:02:31.069Z,73.6429
2022-10-22T08:03:31.118Z,73.6429
2022-10-22T08:04:31.141Z,73.6429
2022-10-22T08:05:31.168Z,73.6429
2022-10-22T08:06:31.198Z,73.6429
2022-10-22T08:07:31.231Z,73.7143
2022-10-22T08:08:31.324Z,73.7143
2022-10-22T08:09:31.285Z,73.7143
2022-10-22T08:10:31.325Z,73.6429
2022-10-22T08:11:31.358Z,73.6429
2022-10-22T08:12:31.386Z,73.7143
2022-10-22T08:13:31.417Z,73.6429
2022-10-22T08:14:31.445Z,73.6429
2022-10-22T08:15:31.554Z,73.6429
2022-10-22T08:16:31.508Z,73.5714
2022-10-22T08:17:31.544Z,73.5714
2022-10-22T08:18:31.571Z,73.5714
2022-10-22T08:19:31.594Z,73.5714
2022-10-22T08:20:31.632Z,73.5714
2022-10-22T08:21:31.662Z,73.5
2022-10-22T08:22:31.689Z,73.5
2022-10-22T08:23:31.717Z,73.5
2022-10-22T08:24:31.746Z,73.4286
2022-10-22T08:25:31.786Z,73.2857
2022-10-22T08:26:31.814Z,73.3571
2022-10-22T08:27:31.842Z,73.4286
2022-10-22T08:28:31.870Z,73.4286
2022-10-22T08:29:31.887Z,73.2143
2022-10-22T08:30:31.915Z,73.2143
2022-10-22T08:31:31.948Z,73.1429
2022-10-22T08:32:31.993Z,73.1429
2022-10-22T08:33:32.016Z,73.0714
2022-10-22T08:34:32.049Z,73.1429
2022-10-22T08:35:32.078Z,73.2143
2022-10-22T08:36:32.105Z,73.2857
2022-10-22T08:37:32.135Z,73.2857
2022-10-22T08:38:32.164Z,73.2143
2022-10-22T08:39:32.196Z,73.2857
2022-10-22T08:40:32.242Z,73.3571
2022-10-22T08:41:32.262Z,73.2857
2022-10-22T08:42:32.301Z,73.2857
2022-10-22T08:43:32.331Z,73.1429
2022-10-22T08:44:32.360Z,73
2022-10-22T08:45:32.391Z,72.7857
2022-10-22T08:46:32.416Z,72.7857
2022-10-22T08:47:32.453Z,72.5714
2022-10-22T08:48:32.493Z,72.3571
2022-10-22T08:49:32.520Z,71.9286
2022-10-22T08:50:32.551Z,71.5714
2022-10-22T08:51:32.590Z,71.2143
2022-10-22T08:52:32.625Z,70.8571
2022-10-22T08:53:32.659Z,70.5714
2022-10-22T08:54:32.680Z,70.2857
2022-10-22T08:55:36.531Z,70
2022-10-22T08:56:32.749Z,69.7143
2022-10-22T08:57:32.803Z,69.3571
2022-10-22T08:58:32.813Z,69.1429
2022-10-22T08:59:32.839Z,68.9286
2022-10-22T09:00:32.872Z,68.7143
2022-10-22T09:01:32.904Z,68.4286
2022-10-22T09:02:32.932Z,68.2143
2022-10-22T09:03:32.968Z,67.9286
2022-10-22T09:04:32.987Z,67.8571
2022-10-22T09:05:33.024Z,67.7143
2022-10-22T09:06:33.053Z,67.5714
2022-10-22T09:07:33.084Z,67.4286
2022-10-22T09:08:33.166Z,67.2857
2022-10-22T09:09:33.146Z,67
2022-10-22T09:10:33.175Z,66.8571
2022-10-22T09:11:33.208Z,66.7143
2022-10-22T09:12:33.243Z,66.5
2022-10-22T09:13:33.274Z,66.2857
2022-10-22T09:14:33.300Z,66.1429
2022-10-22T09:15:33.334Z,66.0714
2022-10-22T09:16:33.369Z,66
2022-10-22T09:17:33.411Z,65.9286
2022-10-22T09:18:33.439Z,65.8571
2022-10-22T09:19:33.468Z,65.7143
2022-10-22T09:20:33.500Z,65.5714
2022-10-22T09:21:33.537Z,65.3571
2022-10-22T09:23:33.613Z,65
2022-10-22T09:24:33.643Z,64.7857
2022-10-22T09:25:33.669Z,64.7857
2022-10-22T09:26:33.701Z,64.7143
2022-10-22T09:27:33.754Z,64.6429
2022-10-22T09:28:33.797Z,64.5
2022-10-22T09:29:33.840Z,64.4286
2022-10-22T09:30:33.855Z,64.2143
2022-10-22T09:31:33.889Z,64.0714
2022-10-22T09:32:33.927Z,64
2022-10-22T09:33:33.976Z,64.0714
2022-10-22T09:34:34.005Z,64
2022-10-22T09:35:34.037Z,63.7857
2022-10-22T09:36:34.069Z,63.5714
2022-10-22T09:37:34.124Z,63.5714
2022-10-22T09:38:34.166Z,63.4286
2022-10-22T09:39:34.193Z,63.1429
2022-10-22T09:40:34.218Z,63.1429
2022-10-22T09:41:34.251Z,63.1429
2022-10-22T09:42:34.285Z,63.1429
2022-10-22T09:43:34.439Z,62.9286
2022-10-22T09:44:34.354Z,62.9286
2022-10-22T09:45:34.377Z,62.7143
2022-10-22T09:46:34.407Z,62.6429
2022-10-22T09:47:43.597Z,62.6429
2022-10-22T09:48:34.504Z,62.7143
2022-10-22T09:49:34.498Z,62.7143
2022-10-22T09:50:34.523Z,62.6429
2022-10-22T09:51:34.553Z,62.5
2022-10-22T09:52:34.581Z,62.4286
2022-10-22T09:53:34.639Z,62.3571
2022-10-22T09:54:34.641Z,62.4286
2022-10-22T09:55:34.674Z,62.4286
2022-10-22T09:56:34.709Z,62.4286
2022-10-22T09:57:34.741Z,62.3571
2022-10-22T09:58:34.764Z,62.2143
2022-10-22T09:59:34.800Z,62.2857
2022-10-22T10:00:34.835Z,62.2857
2022-10-22T10:01:34.872Z,62.2143
2022-10-22T10:02:38.795Z,62.0714
2022-10-22T10:03:34.935Z,62.1429
2022-10-22T10:04:34.964Z,62.0714
2022-10-22T10:05:34.998Z,62.1429
2022-10-22T10:06:35.024Z,62.0714
2022-10-22T10:07:35.061Z,62
2022-10-22T10:08:35.112Z,62
2022-10-22T10:09:35.131Z,62.0714
2022-10-22T10:10:35.175Z,61.9286
2022-10-22T10:11:35.218Z,61.9286
2022-10-22T10:12:35.295Z,61.7857
2022-10-22T10:13:35.287Z,61.7143
2022-10-22T10:14:35.308Z,61.7143
2022-10-22T10:15:35.349Z,61.5
2022-10-22T10:16:35.388Z,61.3571
2022-10-22T10:17:35.434Z,61.2857
2022-10-22T10:18:35.462Z,61.4286
2022-10-22T10:19:35.495Z,61.3571
2022-10-22T10:20:35.537Z,61.3571
2022-10-22T10:21:35.572Z,61.1429
2022-10-22T10:22:35.619Z,61.2143
2022-10-22T10:23:35.650Z,61.1429
2022-10-22T10:24:35.671Z,61
2022-10-22T10:25:35.702Z,61.1429
2022-10-22T10:26:35.740Z,61.1429
2022-10-22T10:27:35.784Z,61.0714
2022-10-22T10:28:35.819Z,61.1429
2022-10-22T10:30:35.878Z,61.2143
2022-10-22T10:31:35.916Z,61.4286
2022-10-22T10:32:35.960Z,61.2857
2022-10-22T10:33:36.011Z,61.4286
2022-10-22T10:34:36.042Z,61.5714
2022-10-22T10:35:36.064Z,61.5714
2022-10-22T10:36:36.101Z,61.4286
2022-10-22T10:37:36.143Z,61.5
2022-10-22T10:38:36.193Z,61.2857
2022-10-22T10:39:36.235Z,61.5
2022-10-22T10:40:36.260Z,61.9286
2022-10-22T10:41:36.292Z,62.5714
2022-10-22T10:42:36.321Z,63
2022-10-22T10:43:36.356Z,63.2857
2022-10-22T10:44:36.400Z,63.3571
2022-10-22T10:45:36.440Z,63.5
2022-10-22T10:46:37.254Z,63.8571
2022-10-22T10:47:36.493Z,64.6429
2022-10-22T10:48:36.532Z,64.6429
2022-10-22T10:49:36.574Z,64.5714
2022-10-22T10:50:36.624Z,64.6429
2022-10-22T10:51:36.641Z,64.7857
2022-10-22T10:52:36.670Z,64.7857
2022-10-22T10:53:36.708Z,64.9286
2022-10-22T10:54:36.751Z,65.2857
2022-10-22T10:55:36.797Z,65.6429
2022-10-22T10:56:39.060Z,65.5714
2022-10-22T10:57:36.858Z,65.9286
2022-10-22T10:58:36.886Z,66
2022-10-22T10:59:36.927Z,66.1429
2022-10-22T11:00:36.971Z,66.2143
2022-10-22T11:01:37.107Z,66.3571
2022-10-22T11:02:37.040Z,66.2857
2022-10-22T11:03:37.070Z,66.4286
2022-10-22T11:04:37.102Z,66.6429
2022-10-22T11:05:37.146Z,66.8571
2022-10-22T11:06:37.184Z,66.7857
2022-10-22T11:07:37.210Z,66.8571
2022-10-22T11:08:37.290Z,67.2857
2022-10-22T11:09:37.278Z,67.4286
2022-10-22T11:10:37.325Z,67.4286
2022-10-22T11:11:37.366Z,67.5714
2022-10-22T11:12:37.413Z,67.8571
2022-10-22T11:13:37.437Z,67.9286
2022-10-22T11:14:37.473Z,68
2022-10-22T11:15:37.509Z,68
2022-10-22T11:16:37.550Z,68
2022-10-22T11:17:37.602Z,68
2022-10-22T11:18:37.635Z,68.0714
2022-10-22T11:19:51.065Z,68.5
2022-10-22T11:20:37.696Z,68.6429
2022-10-22T11:21:37.733Z,68.6429
2022-10-22T11:22:37.861Z,68.4286
2022-10-22T11:23:37.817Z,68.3571
2022-10-22T11:24:37.850Z,68.5
2022-10-22T11:25:37.876Z,68.5714
2022-10-22T11:26:37.918Z,68.5
2022-10-22T11:27:38.107Z,68.2857
2022-10-22T11:28:37.998Z,68.2143
2022-10-22T11:29:38.024Z,68.4286
2022-10-22T11:30:38.054Z,68.4286
2022-10-22T11:31:38.096Z,68.4286
2022-10-22T11:32:38.368Z,68.5714
2022-10-22T11:33:38.185Z,68.4286
2022-10-22T11:34:38.212Z,68.7857
2022-10-22T11:35:38.237Z,69.1429
2022-10-22T11:36:38.282Z,69.2857
2022-10-22T11:37:38.473Z,69.0714
2022-10-22T11:38:38.361Z,69.0714
2022-10-22T11:39:38.404Z,68.7857
2022-10-22T11:40:38.432Z,68.7857
2022-10-22T11:41:38.456Z,69.1429
2022-10-22T11:42:38.495Z,69.2857
2022-10-22T11:43:38.535Z,69.2143
2022-10-22T11:44:38.589Z,69
2022-10-22T11:45:38.610Z,68.9286
2022-10-22T11:46:38.638Z,68.8571
2022-10-22T11:47:39.003Z,69.0714
2022-10-22T11:48:38.721Z,69
2022-10-22T11:49:38.770Z,69
2022-10-22T11:50:38.793Z,68.7857
2022-10-22T11:51:38.826Z,68.8571
2022-10-22T11:52:38.851Z,68.5714
2022-10-22T11:53:39.052Z,68.5714
2022-10-22T11:54:38.934Z,68.5714
2022-10-22T11:55:38.978Z,68.2143
2022-10-22T11:56:39.005Z,68
2022-10-22T11:57:39.511Z,68.2143
2022-10-22T11:58:39.086Z,68.2857
2022-10-22T11:59:39.116Z,68.4286
2022-10-22T12:00:39.167Z,68.3571
2022-10-22T12:01:39.191Z,68.2857
2022-10-22T12:02:39.434Z,68.3571
2022-10-22T12:03:39.256Z,68.2857
2022-10-22T12:04:39.355Z,68.4286
2022-10-22T12:05:39.340Z,68.4286
2022-10-22T12:06:39.366Z,68.7857
2022-10-22T12:07:39.396Z,68.7857
2022-10-22T12:08:39.504Z,68.7143
2022-10-22T12:09:39.465Z,68.7143
2022-10-22T12:10:39.507Z,68.7143
2022-10-22T12:11:39.546Z,68.6429
2022-10-22T12:12:39.935Z,68.7857
2022-10-22T12:13:39.611Z,68.7143
2022-10-22T12:14:39.649Z,68.2857
2022-10-22T12:15:39.695Z,68.1429
2022-10-22T12:16:55.315Z,68.0714
2022-10-22T12:17:39.771Z,68
2022-10-22T12:18:39.788Z,68.2143
2022-10-22T12:19:39.822Z,68.1429
2022-10-22T12:20:39.861Z,68.2143
2022-10-22T12:21:39.904Z,68.2857
2022-10-22T12:22:40.292Z,68.2143
2022-10-22T12:23:39.963Z,67.8571
2022-10-22T12:24:39.994Z,67.5
2022-10-22T12:25:40.040Z,67.4286